createdAt,value
2017-05-11T00:00:11.528Z,19.7
2017-05-11T00:01:24.309Z,19.68
2017-05-11T00:02:37.095Z,19.61
2017-05-11T00:03:49.401Z,19.6
2017-05-11T00:05:02.420Z,19.57
2017-05-11T00:06:14.719Z,19.55
2017-05-11T00:07:27.501Z,19.53
2017-05-11T00:08:40.280Z,19.52
2017-05-11T00:09:53.360Z,19.55
2017-05-11T00:11:06.140Z,19.45
2017-05-11T00:12:18.921Z,19.5
2017-05-11T00:13:31.701Z,19.55
2017-05-11T00:14:44.478Z,19.46
2017-05-11T00:15:57.458Z,19.43
2017-05-11T00:17:10.240Z,19.5
2017-05-11T00:18:23.018Z,19.55
2017-05-11T00:19:35.800Z,19.52
2017-05-11T00:20:48.828Z,19.55
2017-05-11T00:22:01.145Z,19.58
2017-05-11T00:23:13.925Z,19.5
2017-05-11T00:24:26.707Z,19.58
2017-05-11T00:25:39.493Z,19.52
2017-05-11T00:26:51.942Z,19.52
2017-05-11T00:28:04.723Z,19.6
2017-05-11T00:29:17.508Z,19.57
2017-05-11T00:30:29.808Z,19.58
2017-05-11T00:31:42.787Z,19.6
2017-05-11T00:32:55.566Z,19.58
2017-05-11T00:34:08.344Z,19.67
2017-05-11T00:35:21.129Z,19.64
2017-05-11T00:36:33.915Z,19.6
2017-05-11T00:37:46.707Z,19.6
2017-05-11T00:38:59.008Z,19.62
2017-05-11T00:40:11.800Z,19.64
2017-05-11T00:41:24.580Z,19.62
2017-05-11T00:42:37.601Z,19.6
2017-05-11T00:43:50.432Z,19.65
2017-05-11T00:45:03.209Z,19.62
2017-05-11T00:46:15.508Z,19.6
2017-05-11T00:47:28.292Z,19.72
2017-05-11T00:48:41.072Z,19.68
2017-05-11T00:49:53.855Z,19.67
2017-05-11T00:51:06.642Z,19.72
2017-05-11T00:52:19.421Z,19.64
2017-05-11T00:53:32.415Z,19.7
2017-05-11T00:54:45.195Z,19.67
2017-05-11T00:55:57.977Z,19.68
2017-05-11T00:57:10.283Z,19.65
2017-05-11T00:58:23.077Z,19.65
2017-05-11T00:59:35.864Z,19.7
2017-05-11T01:00:48.643Z,19.57
2017-05-11T01:02:01.426Z,19.68
2017-05-11T01:03:14.206Z,19.7
2017-05-11T01:04:27.005Z,19.64
2017-05-11T01:05:39.789Z,19.65
2017-05-11T01:06:52.571Z,19.58
2017-05-11T01:08:05.355Z,19.67
2017-05-11T01:09:17.657Z,19.58
2017-05-11T01:10:29.954Z,19.62
2017-05-11T01:11:42.736Z,19.7
2017-05-11T01:12:55.518Z,19.64
2017-05-11T01:14:08.342Z,19.58
2017-05-11T01:15:20.639Z,19.62
2017-05-11T01:16:33.433Z,19.6
2017-05-11T01:17:46.222Z,19.53
2017-05-11T01:18:59.003Z,19.43
2017-05-11T01:20:11.303Z,19.53
2017-05-11T01:21:24.290Z,19.53
2017-05-11T01:22:37.073Z,19.64
2017-05-11T01:23:49.861Z,19.62
2017-05-11T01:25:02.653Z,19.5
2017-05-11T01:26:15.435Z,19.43
2017-05-11T01:27:28.263Z,19.53
2017-05-11T01:28:41.047Z,19.46
2017-05-11T01:29:53.834Z,19.4
2017-05-11T01:31:06.139Z,19.43
2017-05-11T01:32:18.438Z,19.35
2017-05-11T01:33:31.225Z,19.47
2017-05-11T01:34:44.005Z,19.46
2017-05-11T01:35:56.788Z,19.49
2017-05-11T01:37:09.284Z,19.49
2017-05-11T01:38:22.070Z,19.55
2017-05-11T01:39:34.371Z,19.43
2017-05-11T01:40:47.189Z,19.58
2017-05-11T01:41:59.971Z,19.53
2017-05-11T01:43:12.571Z,19.53
2017-05-11T01:44:25.352Z,19.53
2017-05-11T01:45:37.655Z,19.58
2017-05-11T01:46:50.433Z,19.42
2017-05-11T01:48:03.216Z,19.46
2017-05-11T01:49:15.034Z,19.46
2017-05-11T01:50:27.335Z,19.46
2017-05-11T01:51:40.117Z,19.43
2017-05-11T01:52:52.910Z,19.34
2017-05-11T01:54:05.913Z,19.31
2017-05-11T01:55:18.214Z,19.32
2017-05-11T01:56:30.998Z,19.06
2017-05-11T01:57:43.782Z,18.97
2017-05-11T01:58:56.572Z,18.93
2017-05-11T02:00:09.357Z,18.94
2017-05-11T02:01:22.151Z,18.97
2017-05-11T02:02:34.449Z,18.93
2017-05-11T02:03:47.232Z,18.9
2017-05-11T02:05:00.014Z,18.96
2017-05-11T02:06:12.313Z,19.01
2017-05-11T02:07:25.105Z,18.97
2017-05-11T02:08:37.888Z,18.94
2017-05-11T02:09:50.971Z,18.97
2017-05-11T02:11:03.755Z,18.94
2017-05-11T02:12:16.051Z,18.96
2017-05-11T02:13:28.357Z,19.01
2017-05-11T02:14:41.151Z,18.97
2017-05-11T02:15:54.132Z,18.86
2017-05-11T02:17:06.915Z,18.96
2017-05-11T02:18:19.695Z,18.89
2017-05-11T02:19:32.474Z,18.89
2017-05-11T02:20:45.497Z,18.86
2017-05-11T02:21:58.283Z,18.9
2017-05-11T02:23:11.062Z,18.84
2017-05-11T02:24:23.896Z,18.84
2017-05-11T02:25:36.678Z,18.79
2017-05-11T02:26:48.498Z,18.75
2017-05-11T02:28:00.797Z,18.78
2017-05-11T02:29:13.584Z,18.75
2017-05-11T02:30:26.365Z,18.83
2017-05-11T02:31:39.349Z,18.75
2017-05-11T02:32:52.129Z,18.76
2017-05-11T02:34:04.909Z,18.78
2017-05-11T02:35:17.687Z,18.76
2017-05-11T02:36:30.473Z,18.76
2017-05-11T02:37:43.253Z,18.71
2017-05-11T02:38:56.035Z,18.83
2017-05-11T02:40:08.333Z,18.75
2017-05-11T02:41:21.113Z,18.78
2017-05-11T02:42:34.095Z,18.72
2017-05-11T02:43:46.881Z,18.75
2017-05-11T02:44:59.660Z,18.74
2017-05-11T02:46:10.994Z,18.66
2017-05-11T02:47:23.289Z,18.68
2017-05-11T02:48:36.069Z,18.66
2017-05-11T02:49:48.852Z,18.69
2017-05-11T02:51:01.161Z,18.68
2017-05-11T02:52:13.472Z,18.66
2017-05-11T02:53:26.454Z,18.62
2017-05-11T02:54:39.238Z,18.72
2017-05-11T02:55:52.020Z,18.66
2017-05-11T02:57:04.327Z,18.59
2017-05-11T02:58:17.108Z,18.56
2017-05-11T02:59:29.895Z,18.66
2017-05-11T03:00:42.676Z,18.57
2017-05-11T03:01:55.454Z,18.62
2017-05-11T03:03:08.233Z,18.68
2017-05-11T03:04:21.025Z,18.69
2017-05-11T03:05:32.842Z,18.59
2017-05-11T03:06:45.623Z,18.59
2017-05-11T03:07:58.405Z,18.66
2017-05-11T03:09:10.717Z,18.65
2017-05-11T03:10:23.510Z,18.51
2017-05-11T03:11:36.293Z,18.57
2017-05-11T03:12:49.074Z,18.51
2017-05-11T03:14:01.855Z,18.53
2017-05-11T03:15:14.159Z,18.57
2017-05-11T03:16:26.944Z,18.5
2017-05-11T03:17:39.734Z,18.56
2017-05-11T03:18:52.517Z,18.59
2017-05-11T03:20:05.303Z,18.57
2017-05-11T03:21:17.809Z,18.69
2017-05-11T03:22:30.589Z,18.65
2017-05-11T03:23:43.377Z,18.65
2017-05-11T03:24:56.164Z,18.68
2017-05-11T03:26:08.474Z,18.69
2017-05-11T03:27:21.260Z,18.71
2017-05-11T03:28:34.053Z,18.71
2017-05-11T03:29:46.840Z,18.68
2017-05-11T03:30:59.141Z,18.75
2017-05-11T03:32:11.441Z,18.71
2017-05-11T03:33:24.226Z,18.65
2017-05-11T03:34:37.017Z,18.64
2017-05-11T03:35:49.359Z,18.69
2017-05-11T03:37:02.140Z,18.71
2017-05-11T03:38:14.924Z,18.68
2017-05-11T03:39:27.714Z,18.76
2017-05-11T03:40:40.510Z,18.66
2017-05-11T03:41:53.292Z,18.78
2017-05-11T03:43:05.794Z,18.78
2017-05-11T03:44:18.607Z,18.76
2017-05-11T03:45:31.386Z,18.75
2017-05-11T03:46:44.182Z,18.79
2017-05-11T03:47:56.962Z,18.74
2017-05-11T03:49:09.746Z,18.79
2017-05-11T03:50:22.525Z,18.78
2017-05-11T03:51:35.306Z,18.75
2017-05-11T03:52:47.601Z,18.78
2017-05-11T03:54:00.398Z,18.66
2017-05-11T03:55:13.207Z,18.69
2017-05-11T03:56:25.989Z,18.83
2017-05-11T03:57:38.767Z,18.76
2017-05-11T03:58:51.550Z,18.74
2017-05-11T04:00:04.327Z,18.78
2017-05-11T04:01:17.110Z,18.78
2017-05-11T04:02:29.895Z,18.76
2017-05-11T04:03:42.681Z,18.78
2017-05-11T04:04:55.465Z,18.78
2017-05-11T04:06:08.247Z,18.9
2017-05-11T04:07:21.029Z,18.83
2017-05-11T04:08:33.329Z,18.9
2017-05-11T04:09:46.315Z,18.9
2017-05-11T04:10:59.098Z,18.84
2017-05-11T04:12:11.396Z,18.87
2017-05-11T04:13:24.175Z,18.9
2017-05-11T04:14:36.952Z,18.83
2017-05-11T04:15:49.729Z,18.87
2017-05-11T04:17:02.513Z,18.9
2017-05-11T04:18:15.292Z,18.94
2017-05-11T04:19:28.072Z,18.96
2017-05-11T04:20:40.853Z,18.93
2017-05-11T04:21:53.635Z,18.91
2017-05-11T04:23:06.417Z,18.91
2017-05-11T04:24:19.203Z,18.91
2017-05-11T04:25:31.992Z,18.94
2017-05-11T04:26:44.289Z,18.94
2017-05-11T04:27:57.071Z,18.97
2017-05-11T04:29:08.884Z,18.99
2017-05-11T04:30:21.667Z,19.12
2017-05-11T04:31:34.746Z,18.99
2017-05-11T04:32:47.525Z,19.01
2017-05-11T04:33:59.827Z,19.06
2017-05-11T04:35:12.608Z,19.01
2017-05-11T04:36:25.425Z,18.99
2017-05-11T04:37:38.205Z,19.12
2017-05-11T04:38:50.986Z,19.09
2017-05-11T04:40:03.764Z,19.02
2017-05-11T04:41:16.551Z,19.07
2017-05-11T04:42:29.638Z,19.12
2017-05-11T04:43:42.417Z,19.1
2017-05-11T04:44:54.717Z,19.12
2017-05-11T04:46:07.498Z,19.07
2017-05-11T04:47:20.278Z,19.1
2017-05-11T04:48:32.094Z,19.1
2017-05-11T04:49:44.879Z,19.12
2017-05-11T04:50:57.656Z,19.12
2017-05-11T04:52:09.966Z,19.17
2017-05-11T04:53:21.791Z,19.15
2017-05-11T04:54:34.575Z,19.06
2017-05-11T04:55:47.356Z,19.06
2017-05-11T04:57:00.142Z,19.02
2017-05-11T04:58:12.444Z,19.12
2017-05-11T04:59:24.746Z,19.07
2017-05-11T05:00:37.536Z,19.02
2017-05-11T05:01:50.317Z,19.09
2017-05-11T05:03:03.096Z,19.06
2017-05-11T05:04:15.883Z,19.09
2017-05-11T05:05:28.665Z,19.16
2017-05-11T05:06:41.448Z,19.1
2017-05-11T05:07:54.231Z,19.2
2017-05-11T05:09:06.053Z,19.13
2017-05-11T05:10:19.038Z,19.21
2017-05-11T05:11:31.857Z,19.17
2017-05-11T05:12:44.635Z,19.07
2017-05-11T05:13:57.413Z,19.07
2017-05-11T05:15:10.194Z,19.07
2017-05-11T05:16:23.013Z,19.06
2017-05-11T05:17:34.828Z,19.12
2017-05-11T05:18:47.618Z,19.12
2017-05-11T05:20:00.410Z,19.1
2017-05-11T05:21:13.030Z,19.12
2017-05-11T05:22:25.814Z,19.12
2017-05-11T05:23:38.113Z,19.13
2017-05-11T05:24:50.410Z,19.1
2017-05-11T05:26:02.967Z,19.1
2017-05-11T05:27:15.752Z,19.1
2017-05-11T05:28:28.532Z,19.02
2017-05-11T05:29:40.838Z,19.07
2017-05-11T05:30:53.146Z,19.12
2017-05-11T05:32:06.236Z,19.17
2017-05-11T05:33:18.539Z,19.02
2017-05-11T05:34:31.322Z,19.02
2017-05-11T05:35:44.114Z,19.09
2017-05-11T05:36:56.418Z,19.12
2017-05-11T05:38:08.236Z,19.13
2017-05-11T05:39:20.537Z,19.09
2017-05-11T05:40:33.319Z,18.99
2017-05-11T05:41:46.108Z,18.96
2017-05-11T05:42:58.237Z,19.05
2017-05-11T05:44:11.019Z,19.06
2017-05-11T05:45:23.327Z,19.01
2017-05-11T05:46:36.117Z,18.91
2017-05-11T05:47:49.102Z,18.94
2017-05-11T05:49:01.890Z,18.97
2017-05-11T05:50:14.190Z,18.99
2017-05-11T05:51:26.502Z,18.96
2017-05-11T05:52:39.284Z,18.96
2017-05-11T05:53:52.068Z,18.96
2017-05-11T05:55:04.849Z,19.02
2017-05-11T05:56:16.196Z,19.01
2017-05-11T05:57:28.979Z,19.05
2017-05-11T05:58:41.765Z,19.02
2017-05-11T05:59:54.545Z,19.01
2017-05-11T06:01:07.332Z,18.99
2017-05-11T06:02:19.162Z,18.96
2017-05-11T06:03:30.987Z,18.94
2017-05-11T06:04:43.776Z,18.97
2017-05-11T06:05:56.073Z,18.97
2017-05-11T06:07:08.862Z,18.96
2017-05-11T06:08:21.165Z,18.93
2017-05-11T06:09:33.951Z,18.86
2017-05-11T06:10:46.264Z,18.97
2017-05-11T06:11:59.096Z,18.99
2017-05-11T06:13:11.886Z,18.9
2017-05-11T06:14:24.193Z,18.91
2017-05-11T06:15:37.276Z,18.9
2017-05-11T06:16:50.065Z,19.01
2017-05-11T06:18:02.855Z,18.84
2017-05-11T06:19:15.171Z,18.93
2017-05-11T06:20:27.952Z,18.87
2017-05-11T06:21:40.739Z,18.91
2017-05-11T06:22:53.525Z,18.94
2017-05-11T06:24:06.312Z,18.86
2017-05-11T06:25:19.095Z,18.89
2017-05-11T06:26:32.176Z,18.94
2017-05-11T06:27:44.962Z,18.86
2017-05-11T06:28:57.788Z,18.9
2017-05-11T06:30:09.604Z,18.91
2017-05-11T06:31:22.391Z,18.97
2017-05-11T06:32:35.182Z,18.94
2017-05-11T06:33:47.976Z,18.93
2017-05-11T06:35:00.287Z,18.89
2017-05-11T06:36:13.082Z,18.91
2017-05-11T06:37:25.872Z,18.97
2017-05-11T06:38:38.185Z,18.93
2017-05-11T06:39:50.482Z,18.94
2017-05-11T06:41:03.263Z,18.99
2017-05-11T06:42:15.281Z,18.93
2017-05-11T06:43:27.587Z,18.96
2017-05-11T06:44:40.373Z,18.93
2017-05-11T06:45:53.160Z,18.96
2017-05-11T06:47:05.945Z,18.94
2017-05-11T06:48:19.031Z,18.93
2017-05-11T06:49:31.825Z,18.96
2017-05-11T06:50:44.605Z,18.97
2017-05-11T06:51:56.900Z,19.01
2017-05-11T06:53:09.686Z,18.96
2017-05-11T06:54:22.490Z,18.96
2017-05-11T06:55:35.270Z,18.96
2017-05-11T06:56:48.053Z,18.94
2017-05-11T06:58:00.837Z,18.97
2017-05-11T06:59:13.941Z,19.01
2017-05-11T07:00:26.247Z,19.01
2017-05-11T07:01:39.030Z,18.96
2017-05-11T07:02:51.820Z,18.97
2017-05-11T07:04:04.616Z,19.02
2017-05-11T07:05:16.923Z,18.99
2017-05-11T07:06:29.230Z,18.97
2017-05-11T07:07:42.010Z,18.96
2017-05-11T07:08:54.321Z,18.91
2017-05-11T07:10:07.308Z,18.91
2017-05-11T07:11:20.090Z,18.93
2017-05-11T07:12:32.388Z,18.93
2017-05-11T07:13:45.174Z,18.82
2017-05-11T07:14:58.167Z,18.78
2017-05-11T07:16:10.472Z,18.75
2017-05-11T07:17:23.259Z,18.75
2017-05-11T07:18:36.054Z,18.69
2017-05-11T07:19:48.887Z,18.64
2017-05-11T07:21:01.499Z,18.65
2017-05-11T07:22:14.288Z,18.57
2017-05-11T07:23:27.080Z,18.41
2017-05-11T07:24:39.876Z,18.39
2017-05-11T07:25:52.177Z,18.38
2017-05-11T07:27:05.006Z,18.31
2017-05-11T07:28:16.826Z,18.41
2017-05-11T07:29:29.614Z,18.36
2017-05-11T07:30:42.406Z,18.39
2017-05-11T07:31:55.495Z,18.35
2017-05-11T07:33:08.272Z,18.38
2017-05-11T07:34:21.057Z,18.39
2017-05-11T07:35:33.839Z,18.39
2017-05-11T07:36:46.621Z,18.38
2017-05-11T07:37:59.401Z,18.42
2017-05-11T07:39:12.191Z,18.31
2017-05-11T07:40:25.006Z,18.39
2017-05-11T07:41:37.786Z,18.23
2017-05-11T07:42:50.867Z,18.28
2017-05-11T07:44:03.648Z,18.21
2017-05-11T07:45:15.945Z,18.21
2017-05-11T07:46:28.722Z,18.23
2017-05-11T07:47:41.507Z,18.36
2017-05-11T07:48:54.287Z,18.39
2017-05-11T07:50:06.585Z,18.38
2017-05-11T07:51:18.886Z,18.36
2017-05-11T07:52:30.706Z,18.34
2017-05-11T07:53:43.306Z,18.35
2017-05-11T07:54:55.602Z,18.39
2017-05-11T07:56:08.381Z,18.39
2017-05-11T07:57:20.711Z,18.36
2017-05-11T07:58:33.494Z,18.32
2017-05-11T07:59:45.787Z,18.32
2017-05-11T08:00:57.615Z,18.38
2017-05-11T08:02:10.397Z,18.36
2017-05-11T08:03:22.699Z,18.39
2017-05-11T08:04:35.778Z,18.36
2017-05-11T08:05:48.562Z,18.38
2017-05-11T08:07:00.390Z,18.38
2017-05-11T08:08:13.174Z,18.38
2017-05-11T08:09:25.477Z,18.38
2017-05-11T08:10:38.266Z,18.35
2017-05-11T08:11:51.049Z,18.32
2017-05-11T08:13:03.834Z,18.35
2017-05-11T08:14:16.617Z,18.28
2017-05-11T08:15:28.735Z,18.21
2017-05-11T08:16:41.519Z,18.2
2017-05-11T08:17:53.830Z,18.36
2017-05-11T08:19:06.610Z,18.29
2017-05-11T08:20:19.397Z,18.32
2017-05-11T08:21:32.189Z,18.34
2017-05-11T08:22:44.988Z,18.34
2017-05-11T08:23:57.290Z,18.35
2017-05-11T08:25:10.076Z,18.36
2017-05-11T08:26:22.682Z,18.28
2017-05-11T08:27:34.985Z,18.23
2017-05-11T08:28:47.762Z,18.23
2017-05-11T08:30:00.063Z,18.25
2017-05-11T08:31:13.160Z,18.21
2017-05-11T08:32:25.470Z,18.23
2017-05-11T08:33:38.257Z,18.2
2017-05-11T08:34:51.036Z,18.19
2017-05-11T08:36:03.338Z,18.23
2017-05-11T08:37:15.646Z,18.26
2017-05-11T08:38:28.439Z,18.21
2017-05-11T08:39:41.224Z,18.23
2017-05-11T08:40:54.003Z,18.2
2017-05-11T08:42:07.107Z,18.21
2017-05-11T08:43:19.415Z,18.26
2017-05-11T08:44:32.199Z,18.09
2017-05-11T08:45:44.979Z,18.01
2017-05-11T08:46:56.801Z,17.89
2017-05-11T08:48:09.794Z,17.95
2017-05-11T08:49:22.094Z,17.89
2017-05-11T08:50:34.876Z,17.91
2017-05-11T08:51:47.707Z,17.84
2017-05-11T08:53:00.497Z,17.79
2017-05-11T08:54:12.809Z,17.68
2017-05-11T08:55:24.633Z,17.7
2017-05-11T08:56:37.425Z,17.57
2017-05-11T08:57:50.217Z,17.55
2017-05-11T08:59:03.198Z,17.62
2017-05-11T09:00:15.987Z,17.62
2017-05-11T09:01:28.290Z,17.71
2017-05-11T09:02:41.083Z,17.63
2017-05-11T09:03:53.387Z,17.58
2017-05-11T09:05:05.687Z,17.62
2017-05-11T09:06:18.521Z,17.63
2017-05-11T09:07:31.299Z,17.54
2017-05-11T09:08:44.084Z,17.65
2017-05-11T09:09:56.389Z,17.54
2017-05-11T09:11:08.688Z,17.55
2017-05-11T09:12:21.468Z,17.58
2017-05-11T09:13:34.291Z,17.53
2017-05-11T09:14:47.272Z,17.51
2017-05-11T09:16:00.097Z,17.49
2017-05-11T09:17:12.394Z,17.57
2017-05-11T09:18:25.172Z,17.51
2017-05-11T09:19:37.996Z,17.6
2017-05-11T09:20:50.777Z,17.49
2017-05-11T09:22:02.613Z,17.66
2017-05-11T09:23:15.394Z,17.6
2017-05-11T09:24:28.178Z,17.65
2017-05-11T09:25:41.264Z,17.6
2017-05-11T09:26:54.043Z,17.53
2017-05-11T09:28:06.830Z,17.57
2017-05-11T09:29:19.613Z,17.7
2017-05-11T09:30:32.397Z,17.71
2017-05-11T09:31:45.191Z,17.73
2017-05-11T09:32:57.493Z,17.74
2017-05-11T09:34:10.278Z,17.68
2017-05-11T09:35:21.615Z,17.57
2017-05-11T09:36:34.396Z,17.55
2017-05-11T09:37:47.176Z,17.73
2017-05-11T09:38:59.961Z,17.62
2017-05-11T09:40:12.795Z,17.6
2017-05-11T09:41:24.619Z,17.6
2017-05-11T09:42:37.606Z,17.55
2017-05-11T09:43:50.388Z,17.49
2017-05-11T09:45:03.172Z,17.55
2017-05-11T09:46:15.472Z,17.55
2017-05-11T09:47:27.769Z,17.58
2017-05-11T09:48:40.550Z,17.57
2017-05-11T09:49:53.372Z,17.49
2017-05-11T09:51:05.677Z,17.57
2017-05-11T09:52:18.460Z,17.58
2017-05-11T09:53:31.237Z,17.6
2017-05-11T09:54:43.532Z,17.6
2017-05-11T09:55:56.314Z,17.66
2017-05-11T09:57:09.093Z,17.57
2017-05-11T09:58:20.907Z,17.58
2017-05-11T09:59:33.691Z,17.58
2017-05-11T10:00:46.474Z,17.57
2017-05-11T10:01:59.258Z,17.58
2017-05-11T10:03:11.559Z,17.65
2017-05-11T10:04:24.061Z,17.77
2017-05-11T10:05:36.838Z,17.73
2017-05-11T10:06:49.614Z,17.68
2017-05-11T10:08:02.395Z,17.7
2017-05-11T10:09:15.181Z,17.77
2017-05-11T10:10:27.481Z,17.74
2017-05-11T10:11:39.791Z,17.71
2017-05-11T10:12:52.575Z,17.87
2017-05-11T10:14:05.352Z,17.68
2017-05-11T10:15:18.142Z,17.76
2017-05-11T10:16:30.442Z,17.76
2017-05-11T10:17:42.739Z,17.68
2017-05-11T10:18:55.520Z,17.73
2017-05-11T10:20:08.499Z,17.7
2017-05-11T10:21:20.797Z,17.7
2017-05-11T10:22:33.583Z,17.68
2017-05-11T10:23:46.372Z,17.81
2017-05-11T10:24:59.154Z,17.81
2017-05-11T10:26:11.450Z,17.7
2017-05-11T10:27:23.753Z,17.68
2017-05-11T10:28:36.532Z,17.76
2017-05-11T10:29:48.831Z,17.74
2017-05-11T10:31:00.648Z,17.74
2017-05-11T10:32:13.429Z,17.83
2017-05-11T10:33:26.213Z,17.84
2017-05-11T10:34:38.994Z,17.76
2017-05-11T10:35:51.779Z,17.91
2017-05-11T10:37:04.554Z,17.91
2017-05-11T10:38:16.851Z,17.92
2017-05-11T10:39:28.668Z,17.91
2017-05-11T10:40:41.446Z,17.81
2017-05-11T10:41:53.743Z,17.8
2017-05-11T10:43:06.520Z,17.86
2017-05-11T10:44:18.818Z,17.77
2017-05-11T10:45:31.603Z,17.86
2017-05-11T10:46:44.379Z,17.73
2017-05-11T10:47:56.721Z,17.77
2017-05-11T10:49:09.501Z,17.73
2017-05-11T10:50:22.282Z,17.71
2017-05-11T10:51:35.063Z,17.83
2017-05-11T10:52:47.852Z,17.86
2017-05-11T10:54:00.636Z,17.8
2017-05-11T10:55:13.413Z,17.95
2017-05-11T10:56:25.708Z,17.89
2017-05-11T10:57:38.492Z,17.91
2017-05-11T10:58:50.304Z,17.84
2017-05-11T11:00:03.085Z,18.01
2017-05-11T11:01:15.387Z,17.86
2017-05-11T11:02:27.685Z,17.87
2017-05-11T11:03:40.469Z,17.91
2017-05-11T11:04:53.249Z,17.89
2017-05-11T11:06:06.036Z,17.8
2017-05-11T11:07:18.813Z,17.92
2017-05-11T11:08:31.623Z,17.91
2017-05-11T11:09:43.921Z,17.76
2017-05-11T11:10:56.695Z,17.84
2017-05-11T11:12:09.481Z,17.76
2017-05-11T11:13:21.780Z,17.84
2017-05-11T11:14:34.573Z,17.86
2017-05-11T11:15:46.902Z,17.84
2017-05-11T11:16:59.678Z,17.81
2017-05-11T11:18:12.462Z,17.86
2017-05-11T11:19:24.280Z,17.92
2017-05-11T11:20:37.068Z,17.86
2017-05-11T11:21:49.367Z,17.8
2017-05-11T11:23:02.145Z,17.92
2017-05-11T11:24:14.451Z,17.91
2017-05-11T11:25:26.268Z,17.94
2017-05-11T11:26:39.049Z,17.98
2017-05-11T11:27:51.829Z,18.09
2017-05-11T11:29:04.128Z,18.13
2017-05-11T11:30:16.911Z,18.2
2017-05-11T11:31:29.214Z,18.2
2017-05-11T11:32:41.510Z,18.26
2017-05-11T11:33:53.336Z,18.38
2017-05-11T11:35:05.653Z,18.34
2017-05-11T11:36:17.471Z,18.36
2017-05-11T11:37:30.256Z,18.32
2017-05-11T11:38:43.038Z,18.38
2017-05-11T11:39:55.821Z,18.42
2017-05-11T11:41:08.130Z,18.38
2017-05-11T11:42:20.257Z,18.46
2017-05-11T11:43:33.049Z,18.47
2017-05-11T11:44:45.830Z,18.44
2017-05-11T11:45:58.609Z,18.41
2017-05-11T11:47:11.115Z,18.39
2017-05-11T11:48:23.898Z,18.35
2017-05-11T11:49:36.686Z,18.36
2017-05-11T11:50:49.471Z,18.41
2017-05-11T11:52:01.780Z,18.46
2017-05-11T11:53:14.569Z,18.47
2017-05-11T11:54:27.355Z,18.41
2017-05-11T11:55:40.142Z,18.57
2017-05-11T11:56:52.459Z,18.56
2017-05-11T11:58:05.291Z,18.49
2017-05-11T11:59:17.598Z,18.46
2017-05-11T12:00:29.906Z,18.44
2017-05-11T12:01:42.688Z,18.49
2017-05-11T12:02:55.469Z,18.49
2017-05-11T12:04:07.781Z,18.6
2017-05-11T12:05:20.566Z,18.65
2017-05-11T12:06:33.352Z,18.79
2017-05-11T12:07:46.140Z,18.87
2017-05-11T12:08:59.229Z,18.93
2017-05-11T12:10:12.011Z,19.02
2017-05-11T12:11:24.808Z,19.09
2017-05-11T12:12:37.111Z,19.01
2017-05-11T12:13:49.896Z,19.12
2017-05-11T12:15:02.692Z,19.12
2017-05-11T12:16:15.474Z,19.15
2017-05-11T12:17:27.773Z,19.2
2017-05-11T12:18:40.562Z,19.24
2017-05-11T12:19:53.549Z,19.27
2017-05-11T12:21:06.329Z,19.24
2017-05-11T12:22:18.642Z,19.24
2017-05-11T12:23:29.497Z,19.24
2017-05-11T12:24:42.282Z,19.12
2017-05-11T12:25:54.584Z,19.2
2017-05-11T12:27:07.360Z,19.12
2017-05-11T12:28:20.141Z,19.15
2017-05-11T12:29:32.444Z,19.1
2017-05-11T12:30:45.228Z,19.06
2017-05-11T12:31:58.012Z,19.12
2017-05-11T12:33:10.798Z,19.1
2017-05-11T12:34:23.097Z,19.01
2017-05-11T12:35:35.876Z,18.96
2017-05-11T12:36:48.660Z,18.96
2017-05-11T12:38:00.963Z,18.91
2017-05-11T12:39:13.754Z,18.86
2017-05-11T12:40:26.539Z,18.89
2017-05-11T12:41:39.329Z,18.94
2017-05-11T12:42:52.313Z,18.96
2017-05-11T12:44:05.112Z,19.1
2017-05-11T12:45:17.906Z,19.02
2017-05-11T12:46:30.712Z,19.17
2017-05-11T12:47:43.699Z,19.13
2017-05-11T12:48:56.006Z,19.16
2017-05-11T12:50:08.793Z,19.16
2017-05-11T12:51:21.579Z,18.96
2017-05-11T12:52:34.374Z,19.07
2017-05-11T12:53:47.178Z,19.1
2017-05-11T12:54:59.970Z,19.02
2017-05-11T12:56:12.272Z,18.99
2017-05-11T12:57:24.579Z,19.1
2017-05-11T12:58:37.362Z,19.02
2017-05-11T12:59:50.150Z,18.97
2017-05-11T13:01:02.935Z,19.02
2017-05-11T13:02:15.730Z,19.1
2017-05-11T13:03:28.522Z,19.02
2017-05-11T13:04:41.305Z,19.05
2017-05-11T13:05:54.087Z,19.17
2017-05-11T13:07:06.870Z,19.13
2017-05-11T13:08:19.169Z,19.21
2017-05-11T13:09:32.152Z,19.2
2017-05-11T13:10:44.947Z,19.16
2017-05-11T13:11:56.773Z,19.24
2017-05-11T13:13:09.572Z,19.28
2017-05-11T13:14:22.362Z,19.43
2017-05-11T13:15:35.156Z,19.55
2017-05-11T13:16:47.943Z,19.57
2017-05-11T13:18:00.248Z,19.62
2017-05-11T13:19:13.031Z,19.67
2017-05-11T13:20:25.330Z,19.8
2017-05-11T13:21:38.112Z,19.7
2017-05-11T13:22:50.903Z,19.65
2017-05-11T13:24:03.207Z,19.68
2017-05-11T13:25:15.507Z,19.7
2017-05-11T13:26:28.293Z,19.82
2017-05-11T13:27:41.113Z,19.76
2017-05-11T13:28:53.898Z,19.79
2017-05-11T13:30:06.694Z,19.97
2017-05-11T13:31:19.781Z,19.94
2017-05-11T13:32:32.138Z,20
2017-05-11T13:33:44.921Z,20.05
2017-05-11T13:34:57.223Z,20.08
2017-05-11T13:36:10.004Z,20.07
2017-05-11T13:37:22.784Z,20.08
2017-05-11T13:38:35.087Z,20.08
2017-05-11T13:39:47.872Z,20.02
2017-05-11T13:41:00.171Z,20.13
2017-05-11T13:42:12.972Z,20.07
2017-05-11T13:43:25.272Z,20.13
2017-05-11T13:44:38.053Z,20.1
2017-05-11T13:45:50.833Z,19.85
2017-05-11T13:47:03.618Z,19.8
2017-05-11T13:48:16.409Z,19.83
2017-05-11T13:49:29.204Z,19.72
2017-05-11T13:50:42.004Z,19.72
2017-05-11T13:51:54.838Z,19.86
2017-05-11T13:53:07.641Z,19.95
2017-05-11T13:54:19.962Z,20.05
2017-05-11T13:55:32.771Z,20.15
2017-05-11T13:56:45.077Z,20.17
2017-05-11T13:57:57.870Z,20.44
2017-05-11T13:59:10.190Z,20.66
2017-05-11T14:00:22.502Z,20.78
2017-05-11T14:01:35.304Z,20.83
2017-05-11T14:02:47.622Z,20.97
2017-05-11T14:03:59.929Z,20.87
2017-05-11T14:05:12.730Z,20.85
2017-05-11T14:06:25.564Z,20.93
2017-05-11T14:07:38.404Z,21.08
2017-05-11T14:08:51.196Z,21.06
2017-05-11T14:10:04.002Z,20.94
2017-05-11T14:11:16.319Z,20.83
2017-05-11T14:12:28.637Z,20.96
2017-05-11T14:13:41.442Z,21.08
2017-05-11T14:14:53.749Z,21.19
2017-05-11T14:16:06.537Z,21.33
2017-05-11T14:17:18.853Z,21.42
2017-05-11T14:18:31.180Z,21.61
2017-05-11T14:19:42.534Z,21.71
2017-05-11T14:20:55.979Z,21.93
2017-05-11T14:22:07.803Z,21.98
2017-05-11T14:23:19.627Z,22.04
2017-05-11T14:24:32.195Z,22.05
2017-05-11T14:25:44.505Z,22.08
2017-05-11T14:26:57.293Z,22.29
2017-05-11T14:28:10.097Z,22.36
2017-05-11T14:29:22.411Z,22.41
2017-05-11T14:30:35.086Z,22.49
2017-05-11T14:31:46.920Z,22.35
2017-05-11T14:32:58.754Z,22.29
2017-05-11T14:34:11.063Z,22.27
2017-05-11T14:35:23.863Z,22.26
2017-05-11T14:36:36.175Z,22.29
2017-05-11T14:37:48.974Z,22.19
2017-05-11T14:39:01.773Z,22.06
2017-05-11T14:40:14.110Z,22.06
2017-05-11T14:41:26.928Z,22.08
2017-05-11T14:42:39.257Z,21.91
2017-05-11T14:43:51.566Z,21.81
2017-05-11T14:45:04.353Z,21.91
2017-05-11T14:46:17.297Z,21.85
2017-05-11T14:47:29.600Z,21.82
2017-05-11T14:48:42.389Z,21.81
2017-05-11T14:49:55.172Z,21.86
2017-05-11T14:51:07.961Z,21.85
2017-05-11T14:52:20.268Z,21.81
2017-05-11T14:53:33.054Z,21.81
2017-05-11T14:54:45.837Z,21.74
2017-05-11T14:55:58.620Z,21.63
2017-05-11T14:57:11.228Z,21.68
2017-05-11T14:58:23.052Z,21.68
2017-05-11T14:59:35.833Z,21.59
2017-05-11T15:00:48.137Z,21.59
2017-05-11T15:02:00.923Z,21.61
2017-05-11T15:03:13.715Z,21.52
2017-05-11T15:04:26.029Z,21.63
2017-05-11T15:05:38.821Z,21.64
2017-05-11T15:06:51.132Z,21.74
2017-05-11T15:08:03.434Z,21.77
2017-05-11T15:09:16.230Z,21.79
2017-05-11T15:10:29.022Z,21.75
2017-05-11T15:11:41.326Z,21.71
2017-05-11T15:12:54.119Z,21.67
2017-05-11T15:14:07.264Z,21.64
2017-05-11T15:15:20.066Z,21.71
2017-05-11T15:16:32.858Z,21.7
2017-05-11T15:17:45.657Z,21.56
2017-05-11T15:18:58.458Z,21.61
2017-05-11T15:20:10.290Z,21.59
2017-05-11T15:21:22.618Z,21.61
2017-05-11T15:22:35.411Z,21.56
2017-05-11T15:23:48.202Z,21.52
2017-05-11T15:25:01.006Z,21.27
2017-05-11T15:26:13.318Z,21.3
2017-05-11T15:27:26.109Z,21.34
2017-05-11T15:28:38.912Z,21.26
2017-05-11T15:29:51.907Z,21.31
2017-05-11T15:31:04.704Z,21.27
2017-05-11T15:32:17.017Z,21.03
2017-05-11T15:33:29.834Z,21.11
2017-05-11T15:34:42.634Z,21.15
2017-05-11T15:35:55.433Z,21.06
2017-05-11T15:37:08.230Z,21.06
2017-05-11T15:38:20.552Z,21.18